createdAt,value
2019-06-01T00:00:10.271Z,0.8
2019-06-01T00:00:46.314Z,0.8
2019-06-01T00:01:48.736Z,0.8
2019-06-01T00:02:52.099Z,0.8
2019-06-01T00:04:57.607Z,0.0
2019-06-01T00:05:48.733Z,0.4
2019-06-01T00:06:48.943Z,0.8
2019-06-01T00:07:48.921Z,0.6
2019-06-01T00:09:49.600Z,0.0
2019-06-01T00:10:49.431Z,0.0
2019-06-01T00:13:59.533Z,0.0
2019-06-01T00:14:50.030Z,0.4
2019-06-01T00:15:50.391Z,0.8
2019-06-01T00:16:50.489Z,0.8
2019-06-01T00:17:50.483Z,1.0
2019-06-01T00:20:01.300Z,0.8
2019-06-01T00:20:52.627Z,0.8
2019-06-01T00:21:52.227Z,0.8
2019-06-01T00:22:51.839Z,0.8
2019-06-01T00:24:52.317Z,0.8
2019-06-01T00:25:52.894Z,0.8
2019-06-01T00:26:56.749Z,0.6
2019-06-01T00:27:57.150Z,0.4
2019-06-01T00:29:17.201Z,0.0
2019-06-01T00:30:26.840Z,0.0
2019-06-01T00:31:20.099Z,0.0
2019-06-01T00:32:20.444Z,0.0
2019-06-01T00:33:41.203Z,0.6
2019-06-01T00:36:51.923Z,0.8
2019-06-01T00:37:51.764Z,0.8
2019-06-01T00:39:52.067Z,0.8
2019-06-01T00:40:52.573Z,0.8
2019-06-01T00:41:52.678Z,0.8
2019-06-01T00:42:55.213Z,0.9
2019-06-01T00:44:15.391Z,0.9
2019-06-01T00:45:25.589Z,0.8
2019-06-01T00:46:26.047Z,0.8
2019-06-01T00:47:26.007Z,0.8
2019-06-01T00:48:46.260Z,0.8
2019-06-01T00:49:36.703Z,0.8
2019-06-01T00:50:37.226Z,0.8
2019-06-01T00:51:37.172Z,0.8
2019-06-01T00:52:37.345Z,0.8
2019-06-01T00:53:57.602Z,0.8
2019-06-01T00:54:37.706Z,0.9
2019-06-01T00:55:27.943Z,0.8
2019-06-01T00:56:28.048Z,0.8
2019-06-01T00:57:28.112Z,0.6
2019-06-01T00:58:49.482Z,0.8
2019-06-01T00:59:38.438Z,0.8
2019-06-01T01:00:43.424Z,0.9
2019-06-01T01:01:38.699Z,0.8
2019-06-01T01:02:38.865Z,0.8
2019-06-01T01:04:01.358Z,0.9
2019-06-01T01:04:41.374Z,0.8
2019-06-01T01:05:41.541Z,0.8
2019-06-01T01:06:41.885Z,0.8
2019-06-01T01:07:42.294Z,0.8
2019-06-01T01:09:02.491Z,0.8
2019-06-01T01:09:42.725Z,0.8
2019-06-01T01:10:42.879Z,0.8
2019-06-01T01:11:43.291Z,0.8
2019-06-01T01:12:43.359Z,0.8
2019-06-01T01:14:03.579Z,0.8
2019-06-01T01:16:56.827Z,0.8
2019-06-01T01:17:58.502Z,0.8
2019-06-01T01:20:27.338Z,0.8
2019-06-01T01:21:37.199Z,0.8
2019-06-01T01:22:38.098Z,0.8
2019-06-01T01:23:58.823Z,0.8
2019-06-01T01:24:38.926Z,0.8
2019-06-01T01:25:39.452Z,0.8
2019-06-01T01:26:39.281Z,0.8
2019-06-01T01:27:39.462Z,0.8
2019-06-01T01:29:11.466Z,0.8
2019-06-01T01:34:12.914Z,0.8
2019-06-01T01:38:13.829Z,0.0
2019-06-01T01:39:14.231Z,0.0
2019-06-01T01:40:04.169Z,0.0
2019-06-01T01:41:04.548Z,0.0
2019-06-01T01:42:04.744Z,0.0
2019-06-01T01:43:25.042Z,0.0
2019-06-01T01:44:25.168Z,0.0
2019-06-01T01:45:25.287Z,0.0
2019-06-01T01:46:25.752Z,0.0
2019-06-01T01:47:25.775Z,0.0
2019-06-01T01:48:46.250Z,0.0
2019-06-01T01:49:36.281Z,0.0
2019-06-01T01:50:36.349Z,0.0
2019-06-01T01:51:36.496Z,0.0
2019-06-01T01:52:36.712Z,0.8
2019-06-01T01:53:57.027Z,0.8
2019-06-01T01:54:37.118Z,0.8
2019-06-01T01:55:37.554Z,0.8
2019-06-01T01:56:37.453Z,0.8
2019-06-01T01:57:40.705Z,0.8
2019-06-01T01:59:11.301Z,0.8
2019-06-01T01:59:51.350Z,0.8
2019-06-01T02:00:52.894Z,0.8
2019-06-01T02:01:52.500Z,0.8
2019-06-01T02:03:11.833Z,0.8
2019-06-01T02:04:12.141Z,0.8
2019-06-01T02:08:24.130Z,0.8
2019-06-01T02:09:23.125Z,0.8
2019-06-01T02:10:23.359Z,0.8
2019-06-01T02:11:23.731Z,0.8
2019-06-01T02:12:23.876Z,0.9
2019-06-01T02:13:44.090Z,0.8
2019-06-01T02:15:34.452Z,0.9
2019-06-01T02:16:34.590Z,0.8
2019-06-01T02:17:34.882Z,0.8
2019-06-01T02:18:55.914Z,0.8
2019-06-01T02:19:36.550Z,0.8
2019-06-01T02:22:35.925Z,0.8
2019-06-01T02:23:56.907Z,0.8
2019-06-01T02:24:46.327Z,0.8
2019-06-01T02:25:46.638Z,0.8
2019-06-01T02:26:46.747Z,0.8
2019-06-01T02:27:59.225Z,0.8
2019-06-01T02:29:18.448Z,0.0
2019-06-01T02:30:18.455Z,0.0
2019-06-01T02:31:18.756Z,0.0
2019-06-01T02:32:18.876Z,0.0
2019-06-01T02:35:50.310Z,0.0
2019-06-01T02:36:50.778Z,0.0
2019-06-01T02:37:50.950Z,0.0
2019-06-01T02:40:03.090Z,0.2
2019-06-01T02:40:51.535Z,0.4
2019-06-01T02:41:51.595Z,0.2
2019-06-01T02:44:52.221Z,0.0
2019-06-01T02:45:52.465Z,0.0
2019-06-01T02:46:52.748Z,0.6
2019-06-01T02:50:04.410Z,0.0
2019-06-01T02:50:53.268Z,0.0
2019-06-01T02:51:53.302Z,0.0
2019-06-01T02:54:54.046Z,0.0
2019-06-01T02:55:54.338Z,0.0
2019-06-01T02:57:00.189Z,0.0
2019-06-01T02:58:00.202Z,0.0
2019-06-01T02:59:00.325Z,0.0
2019-06-01T02:59:49.894Z,0.0
2019-06-01T03:00:50.276Z,0.0
2019-06-01T03:01:56.944Z,0.0
2019-06-01T03:02:50.685Z,0.0
2019-06-01T03:04:01.366Z,0.6
2019-06-01T03:10:22.651Z,0.8
2019-06-01T03:11:22.664Z,0.2
2019-06-01T03:12:04.241Z,0.0
2019-06-01T03:13:04.137Z,0.0
2019-06-01T03:14:08.910Z,0.0
2019-06-01T03:15:38.062Z,0.0
2019-06-01T03:16:28.195Z,0.0
2019-06-01T03:17:28.203Z,0.6
2019-06-01T03:18:28.421Z,0.6
2019-06-01T03:19:28.635Z,0.8
2019-06-01T03:20:59.525Z,0.8
2019-06-01T03:21:39.026Z,0.9
2019-06-01T03:22:39.225Z,1.0
2019-06-01T03:23:39.543Z,0.8
2019-06-01T03:24:49.951Z,0.8
2019-06-01T03:26:20.131Z,0.4
2019-06-01T03:27:06.183Z,0.8
2019-06-01T03:28:06.222Z,0.8
2019-06-01T03:29:09.406Z,0.8
2019-06-01T03:30:37.919Z,0.8
2019-06-01T03:31:38.415Z,0.8
2019-06-01T03:32:38.305Z,0.8
2019-06-01T03:33:38.661Z,0.8
2019-06-01T03:34:38.805Z,0.8
2019-06-01T03:36:09.212Z,0.8
2019-06-01T03:39:40.920Z,0.8
2019-06-01T03:41:12.367Z,0.0
2019-06-01T03:45:13.610Z,0.0
2019-06-01T03:46:14.110Z,0.0
2019-06-01T03:46:44.137Z,0.0
2019-06-01T03:47:45.325Z,0.0
2019-06-01T03:48:45.617Z,0.0
2019-06-01T03:49:45.910Z,0.0
2019-06-01T03:51:08.386Z,0.0
2019-06-01T03:52:40.705Z,0.0
2019-06-01T03:53:40.844Z,0.0
2019-06-01T03:54:41.128Z,0.0
2019-06-01T03:56:04.860Z,0.8
2019-06-01T03:56:43.553Z,0.8
2019-06-01T03:57:50.830Z,0.8
2019-06-01T03:58:50.834Z,0.4
2019-06-01T03:59:44.793Z,0.0
2019-06-01T04:01:05.171Z,0.8
2019-06-01T04:02:05.114Z,0.8
2019-06-01T04:03:05.648Z,0.8
2019-06-01T04:03:55.616Z,0.0
2019-06-01T04:05:16.062Z,0.0
2019-06-01T04:06:19.874Z,0.4
2019-06-01T04:06:59.812Z,0.8
2019-06-01T04:08:01.247Z,0.8
2019-06-01T04:09:03.481Z,0.8
2019-06-01T04:10:28.815Z,0.6
2019-06-01T04:11:30.528Z,0.0
2019-06-01T04:12:30.592Z,0.0
2019-06-01T04:13:33.684Z,0.0
2019-06-01T04:14:37.992Z,0.0
2019-06-01T04:16:04.404Z,0.8
2019-06-01T04:16:56.742Z,0.8
2019-06-01T04:17:56.738Z,0.8
2019-06-01T04:19:08.026Z,0.9
2019-06-01T04:20:30.132Z,0.8
2019-06-01T04:21:46.597Z,0.0
2019-06-01T04:22:50.093Z,0.0
2019-06-01T04:23:53.479Z,0.0
2019-06-01T04:24:55.881Z,0.0
2019-06-01T04:27:43.860Z,0.0
2019-06-01T04:28:47.959Z,0.0
2019-06-01T04:29:51.935Z,0.0
2019-06-01T04:31:20.156Z,0.0
2019-06-01T04:32:03.289Z,0.0
2019-06-01T04:32:57.474Z,0.0
2019-06-01T04:34:02.980Z,0.0
2019-06-01T04:37:23.887Z,0.0
2019-06-01T04:38:27.639Z,0.2
2019-06-01T04:39:29.744Z,0.8
2019-06-01T04:40:55.522Z,0.8
2019-06-01T04:41:59.273Z,0.8
2019-06-01T04:43:03.705Z,0.8
2019-06-01T04:44:07.770Z,0.8
2019-06-01T04:45:10.834Z,0.8
2019-06-01T04:46:14.439Z,0.8
2019-06-01T04:47:06.634Z,0.8
2019-06-01T04:47:50.563Z,0.8
2019-06-01T04:48:54.320Z,0.8
2019-06-01T04:49:57.665Z,0.4
2019-06-01T04:51:11.670Z,0.0
2019-06-01T04:52:44.597Z,0.0
2019-06-01T04:53:47.740Z,0.0
2019-06-01T04:54:48.041Z,0.0
2019-06-01T04:56:15.238Z,0.0
2019-06-01T04:57:44.896Z,0.0
2019-06-01T04:58:36.680Z,0.0
2019-06-01T04:59:37.848Z,0.0
2019-06-01T05:01:41.183Z,0.0
2019-06-01T05:02:35.410Z,0.0
2019-06-01T05:03:35.678Z,0.0
2019-06-01T05:04:39.211Z,0.0
2019-06-01T05:06:42.648Z,0.0
2019-06-01T05:07:55.972Z,0.0
2019-06-01T05:08:55.937Z,0.0
2019-06-01T05:10:32.690Z,0.0
2019-06-01T05:11:37.776Z,0.0
2019-06-01T05:13:45.213Z,0.0
2019-06-01T05:14:50.491Z,0.0
2019-06-01T05:16:28.991Z,0.0
2019-06-01T05:17:31.964Z,0.0
2019-06-01T05:18:36.806Z,0.0
2019-06-01T05:19:43.440Z,0.0
2019-06-01T05:21:18.039Z,0.0
2019-06-01T05:22:02.847Z,0.0
2019-06-01T05:23:19.174Z,0.4
2019-06-01T05:24:12.752Z,0.0
2019-06-01T05:25:36.364Z,0.2
2019-06-01T05:26:43.892Z,0.4
2019-06-01T05:30:31.336Z,0.2
2019-06-01T05:33:37.948Z,0.0
2019-06-01T05:37:19.228Z,0.0
2019-06-01T05:38:30.465Z,0.0
2019-06-01T05:39:32.402Z,0.0
2019-06-01T05:40:52.069Z,0.0
2019-06-01T05:41:56.809Z,0.0
2019-06-01T05:43:19.714Z,0.0
2019-06-01T05:44:23.408Z,0.0
2019-06-01T05:45:48.721Z,0.0
2019-06-01T05:46:38.950Z,0.0
2019-06-01T05:48:42.137Z,0.8
2019-06-01T05:50:24.248Z,0.2
2019-06-01T05:51:36.611Z,0.6
2019-06-01T05:52:43.206Z,0.2
2019-06-01T05:53:51.526Z,0.6
2019-06-01T05:56:10.518Z,0.0
2019-06-01T05:59:30.111Z,0.0
2019-06-01T06:01:39.348Z,0.4
2019-06-01T06:03:59.186Z,0.0
2019-06-01T06:05:47.869Z,0.0
2019-06-01T06:08:59.461Z,0.0
2019-06-01T06:13:07.818Z,0.4
2019-06-01T06:15:11.416Z,0.2
2019-06-01T06:16:33.530Z,0.4
2019-06-01T06:17:25.803Z,0.8
2019-06-01T06:18:34.245Z,0.4
2019-06-01T06:19:51.834Z,0.4
2019-06-01T06:21:33.098Z,0.6
2019-06-01T06:23:43.169Z,0.2
2019-06-01T06:26:09.670Z,0.0
2019-06-01T06:26:57.456Z,0.2
2019-06-01T06:31:15.009Z,0.2
2019-06-01T06:32:56.624Z,0.0
2019-06-01T06:34:15.804Z,0.0
2019-06-01T06:35:38.130Z,0.0
2019-06-01T06:36:50.701Z,0.0
2019-06-01T06:37:53.714Z,0.0
2019-06-01T06:40:38.599Z,0.0
2019-06-01T06:43:59.361Z,0.0
2019-06-01T06:45:25.045Z,0.0
2019-06-01T06:46:38.793Z,0.0
2019-06-01T06:47:21.304Z,0.0
2019-06-01T06:48:28.563Z,0.8
2019-06-01T06:53:24.350Z,0.8
2019-06-01T06:55:59.706Z,0.0
2019-06-01T06:56:52.343Z,0.2
2019-06-01T06:57:59.722Z,0.2
2019-06-01T07:02:09.393Z,0.6
2019-06-01T07:03:44.807Z,0.0
2019-06-01T07:04:57.512Z,0.4
2019-06-01T07:06:59.841Z,0.4
2019-06-01T07:08:01.935Z,0.8
2019-06-01T07:09:20.062Z,0.8
2019-06-01T07:10:55.103Z,0.8
2019-06-01T07:11:57.544Z,0.4
2019-06-01T07:13:10.739Z,0.0
2019-06-01T07:15:58.680Z,0.2
2019-06-01T07:17:02.746Z,0.2
2019-06-01T07:18:01.239Z,0.4
2019-06-01T07:19:17.422Z,0.2
2019-06-01T07:21:23.726Z,0.0
2019-06-01T07:22:42.987Z,0.4
2019-06-01T07:23:52.227Z,0.6
2019-06-01T07:25:14.397Z,0.8
2019-06-01T07:26:46.993Z,0.2
2019-06-01T07:28:24.116Z,0.6
2019-06-01T07:31:35.070Z,0.6
2019-06-01T07:33:32.769Z,0.8
2019-06-01T07:36:24.674Z,0.8
2019-06-01T07:37:24.419Z,0.8
2019-06-01T07:38:36.847Z,0.8
2019-06-01T07:39:34.731Z,0.8
2019-06-01T07:41:24.309Z,0.8
2019-06-01T07:41:58.450Z,0.8
2019-06-01T07:44:14.959Z,0.2
2019-06-01T07:45:44.119Z,0.9
2019-06-01T07:46:57.695Z,0.8
2019-06-01T07:47:56.622Z,0.8
2019-06-01T07:50:12.342Z,0.8
2019-06-01T07:51:55.959Z,0.8
2019-06-01T07:55:47.422Z,1.0
2019-06-01T07:56:55.748Z,1.2
2019-06-01T07:57:42.833Z,0.8
2019-06-01T08:01:23.369Z,1.1
2019-06-01T08:03:11.940Z,0.6
2019-06-01T08:04:40.682Z,0.8
2019-06-01T08:06:03.430Z,1.1
2019-06-01T08:08:51.045Z,0.7
2019-06-01T08:12:39.357Z,1.2
2019-06-01T08:13:48.456Z,0.8
2019-06-01T08:16:40.784Z,0.6
2019-06-01T08:17:50.276Z,0.6
2019-06-01T08:19:08.804Z,0.9
2019-06-01T08:20:21.870Z,0.6
2019-06-01T08:22:20.093Z,0.8
2019-06-01T08:23:24.102Z,0.8
2019-06-01T08:24:49.837Z,0.6
2019-06-01T08:26:46.098Z,0.8
2019-06-01T08:28:13.063Z,0.9
2019-06-01T08:31:55.715Z,1.0
2019-06-01T08:35:09.387Z,0.8
2019-06-01T08:36:07.976Z,0.9
2019-06-01T08:37:08.010Z,0.9
2019-06-01T08:38:08.058Z,0.9
2019-06-01T08:39:08.113Z,0.6
2019-06-01T08:40:38.042Z,0.8
2019-06-01T08:47:48.353Z,0.8
2019-06-01T08:50:18.407Z,0.8
2019-06-01T08:50:58.422Z,0.8
2019-06-01T08:51:58.419Z,0.8
2019-06-01T08:52:58.432Z,0.9
2019-06-01T08:53:58.448Z,0.8
2019-06-01T08:55:28.461Z,0.8
2019-06-01T08:56:21.770Z,0.8
2019-06-01T08:57:18.496Z,0.8
2019-06-01T08:58:18.494Z,0.8
2019-06-01T08:59:18.533Z,0.6
2019-06-01T09:00:48.550Z,0.7
2019-06-01T09:01:48.542Z,1.1
2019-06-01T09:02:38.569Z,1.0
2019-06-01T09:03:18.576Z,1.4
2019-06-01T09:04:18.704Z,0.8
2019-06-01T09:05:48.735Z,0.8
2019-06-01T09:07:48.795Z,0.9
2019-06-01T09:08:48.811Z,1.8
2019-06-01T09:10:18.831Z,0.8
2019-06-01T09:10:58.870Z,1.0
2019-06-01T09:15:58.961Z,1.0
2019-06-01T09:16:59.020Z,1.2
2019-06-01T09:17:58.998Z,0.8
2019-06-01T09:18:59.041Z,1.1
2019-06-01T09:20:59.089Z,1.0
2019-06-01T09:21:59.112Z,1.3
2019-06-01T09:22:59.131Z,1.1
2019-06-01T09:23:59.142Z,1.4
2019-06-01T09:25:29.594Z,0.6
2019-06-01T09:26:09.170Z,0.2
2019-06-01T09:26:59.179Z,0.0
2019-06-01T09:27:59.218Z,0.9
2019-06-01T09:28:59.239Z,0.6
2019-06-01T09:30:29.877Z,0.8
2019-06-01T09:31:09.243Z,0.8
2019-06-01T09:32:11.002Z,1.4
2019-06-01T09:33:09.308Z,0.6
2019-06-01T09:34:11.902Z,1.1
2019-06-01T09:35:53.876Z,0.8
2019-06-01T09:36:41.930Z,0.8
2019-06-01T09:37:45.609Z,0.8
2019-06-01T09:38:42.110Z,1.0
2019-06-01T09:40:12.037Z,1.2
2019-06-01T09:42:02.181Z,1.2
2019-06-01T09:43:02.065Z,1.0
2019-06-01T09:44:02.085Z,0.8
2019-06-01T09:45:32.989Z,0.8
2019-06-01T09:46:12.122Z,0.8
2019-06-01T09:47:02.129Z,0.8
2019-06-01T09:48:02.151Z,0.4
2019-06-01T09:49:02.176Z,0.8
2019-06-01T09:50:33.159Z,0.6
2019-06-01T09:51:12.258Z,0.4
2019-06-01T09:52:12.823Z,0.8
2019-06-01T09:53:12.284Z,1.0
2019-06-01T09:54:12.328Z,0.8
2019-06-01T09:55:42.343Z,1.2
2019-06-01T09:56:42.311Z,1.0
2019-06-01T09:57:42.352Z,0.7
2019-06-01T09:58:42.345Z,1.0
2019-06-01T10:00:12.353Z,1.0
2019-06-01T10:02:02.382Z,1.1
2019-06-01T10:03:02.408Z,0.8
2019-06-01T10:04:02.465Z,0.2
2019-06-01T10:05:32.465Z,1.0
2019-06-01T10:06:14.077Z,1.3
2019-06-01T10:07:02.473Z,0.4
2019-06-01T10:08:02.499Z,1.1
2019-06-01T10:09:02.515Z,1.4
2019-06-01T10:10:33.580Z,1.2
2019-06-01T10:11:12.707Z,1.2
2019-06-01T10:12:12.584Z,1.1
2019-06-01T10:13:12.651Z,1.6
2019-06-01T10:14:12.653Z,1.2
2019-06-01T10:15:42.976Z,1.2
2019-06-01T10:19:43.058Z,0.8
2019-06-01T10:20:42.809Z,1.2
2019-06-01T10:23:12.859Z,1.2
2019-06-01T10:24:12.874Z,1.2
2019-06-01T10:25:42.923Z,1.6
2019-06-01T10:33:53.395Z,1.1
2019-06-01T10:34:53.176Z,0.7
2019-06-01T10:35:53.211Z,1.2
2019-06-01T10:36:53.342Z,1.2
2019-06-01T10:37:53.205Z,1.2
2019-06-01T10:38:53.229Z,1.0
2019-06-01T10:39:53.232Z,0.6
2019-06-01T10:40:53.346Z,1.0
2019-06-01T10:41:53.314Z,1.1
2019-06-01T10:42:53.447Z,1.1
2019-06-01T10:43:53.525Z,1.4
2019-06-01T10:45:23.495Z,0.8
2019-06-01T10:46:03.546Z,0.8
2019-06-01T10:47:13.637Z,0.8
2019-06-01T10:48:13.606Z,1.3
2019-06-01T10:49:13.640Z,1.6
2019-06-01T10:50:17.170Z,0.8
2019-06-01T10:51:13.677Z,1.0
2019-06-01T10:52:13.766Z,0.9
2019-06-01T10:53:13.862Z,1.2
2019-06-01T10:54:13.884Z,0.9
2019-06-01T10:55:43.935Z,1.1
2019-06-01T11:06:04.276Z,1.2
2019-06-01T11:07:14.296Z,1.3
2019-06-01T11:08:14.319Z,1.0
2019-06-01T11:09:14.359Z,1.0
2019-06-01T11:10:14.363Z,0.9
2019-06-01T11:11:14.498Z,1.0
2019-06-01T11:12:14.397Z,1.0
2019-06-01T11:13:14.415Z,0.8
2019-06-01T11:14:14.434Z,0.8
2019-06-01T11:15:44.438Z,0.4
2019-06-01T11:17:24.526Z,1.3
2019-06-01T11:21:54.777Z,0.9
2019-06-01T11:26:04.764Z,0.8
2019-06-01T11:27:14.758Z,0.8
2019-06-01T11:28:14.797Z,0.9
2019-06-01T11:29:14.794Z,0.9
2019-06-01T11:30:44.865Z,0.8
2019-06-01T11:33:14.920Z,1.1
2019-06-01T11:51:05.425Z,1.2
2019-06-01T11:52:05.445Z,1.1
2019-06-01T11:53:05.508Z,1.1
2019-06-01T11:54:05.513Z,0.9
2019-06-01T11:55:35.527Z,0.8
2019-06-01T11:56:15.536Z,0.8
2019-06-01T12:06:05.729Z,1.4
2019-06-01T12:07:16.714Z,1.0
2019-06-01T12:08:05.795Z,1.2
2019-06-01T12:09:05.808Z,1.5
2019-06-01T12:10:36.622Z,1.1
2019-06-01T12:11:15.873Z,1.1
2019-06-01T12:12:27.124Z,1.4
2019-06-01T12:13:15.898Z,1.2
2019-06-01T12:14:46.710Z,0.8
2019-06-01T12:15:46.369Z,0.9
2019-06-01T12:17:16.019Z,1.0
2019-06-01T12:31:06.366Z,1.2
2019-06-01T12:36:06.468Z,0.8
2019-06-01T12:37:06.476Z,1.5
2019-06-01T12:41:06.604Z,0.9
2019-06-01T12:42:06.643Z,1.0
2019-06-01T12:43:06.658Z,1.2
2019-06-01T12:44:06.665Z,0.8
2019-06-01T12:45:36.712Z,0.6
2019-06-01T12:46:16.731Z,0.6
2019-06-01T12:47:16.745Z,0.2
2019-06-01T12:48:16.789Z,0.4
2019-06-01T12:49:46.801Z,1.1
2019-06-01T12:50:49.627Z,0.8
2019-06-01T12:54:46.895Z,1.6
2019-06-01T12:55:46.937Z,1.1
2019-06-01T13:11:17.269Z,1.1
2019-06-01T13:12:07.247Z,1.0
2019-06-01T13:13:07.288Z,1.0
2019-06-01T13:14:07.303Z,1.9
2019-06-01T13:15:37.338Z,1.0
2019-06-01T13:16:17.330Z,1.4
2019-06-01T13:17:17.386Z,1.1
2019-06-01T13:18:17.518Z,1.0
2019-06-01T13:19:47.557Z,0.8
2019-06-01T13:20:47.707Z,0.8
2019-06-01T13:31:17.650Z,0.8
2019-06-01T13:32:07.698Z,0.8
2019-06-01T13:33:07.733Z,0.9
2019-06-01T13:34:07.766Z,0.8
2019-06-01T13:35:37.801Z,1.0
2019-06-01T13:36:17.824Z,0.8
2019-06-01T13:37:17.868Z,0.8
2019-06-01T13:38:17.869Z,0.8
2019-06-01T13:39:54.147Z,0.8
2019-06-01T13:40:48.956Z,1.1
2019-06-01T13:51:18.147Z,1.4
2019-06-01T13:52:18.576Z,1.5
2019-06-01T13:53:09.599Z,1.3
2019-06-01T13:54:40.178Z,1.3
2019-06-01T13:55:38.284Z,1.5
2019-06-01T13:56:18.295Z,0.9
2019-06-01T13:58:18.322Z,0.8
2019-06-01T13:59:48.755Z,0.2
2019-06-01T14:00:48.430Z,0.8
2019-06-01T14:01:28.376Z,1.1
2019-06-01T14:02:28.387Z,0.9
2019-06-01T14:03:28.442Z,1.4
2019-06-01T14:05:02.913Z,0.9
2019-06-01T14:06:02.922Z,1.1
2019-06-01T14:07:12.956Z,1.2
2019-06-01T14:08:27.793Z,0.8
2019-06-01T14:09:43.005Z,0.8
2019-06-01T14:10:43.071Z,1.1
2019-06-01T14:11:23.018Z,1.3
2019-06-01T14:12:23.052Z,1.6
2019-06-01T14:13:13.048Z,1.4
2019-06-01T14:14:43.088Z,0.8
2019-06-01T14:15:43.086Z,0.8
2019-06-01T14:16:23.130Z,1.0
2019-06-01T14:17:23.100Z,0.8
2019-06-01T14:18:23.145Z,0.8
2019-06-01T14:19:53.788Z,0.9
2019-06-01T14:20:53.710Z,1.3
2019-06-01T14:21:54.177Z,1.0
2019-06-01T14:22:54.013Z,1.8
2019-06-01T14:23:54.004Z,1.5
2019-06-01T14:25:23.247Z,1.2
2019-06-01T14:26:03.424Z,1.4
2019-06-01T14:27:13.272Z,1.4
2019-06-01T14:28:13.285Z,1.6
2019-06-01T14:29:43.311Z,1.3
2019-06-01T14:30:43.313Z,1.1
2019-06-01T14:31:23.317Z,0.8
2019-06-01T14:32:13.410Z,0.8
2019-06-01T14:33:13.376Z,1.0
2019-06-01T14:34:43.431Z,0.8
2019-06-01T14:35:43.504Z,0.8
2019-06-01T14:36:23.472Z,1.2
2019-06-01T14:37:23.481Z,1.2
2019-06-01T14:38:23.492Z,1.2
2019-06-01T14:39:54.601Z,1.0
2019-06-01T14:40:53.680Z,0.8
2019-06-01T14:41:53.665Z,1.2
2019-06-01T14:42:55.632Z,0.9
2019-06-01T14:43:53.690Z,1.1
2019-06-01T14:45:23.609Z,1.3
2019-06-01T14:47:13.755Z,0.8
2019-06-01T14:48:13.741Z,1.5
2019-06-01T14:49:43.782Z,1.3
2019-06-01T14:50:43.791Z,1.1
2019-06-01T14:51:23.866Z,1.4
2019-06-01T14:52:13.870Z,1.0
2019-06-01T14:53:13.980Z,1.1
2019-06-01T14:54:43.906Z,1.4
2019-06-01T14:55:43.932Z,1.4
2019-06-01T14:56:23.954Z,1.2
2019-06-01T14:57:23.990Z,0.9
2019-06-01T14:58:24.150Z,1.3
2019-06-01T14:59:24.045Z,1.7
2019-06-01T15:00:24.067Z,1.0
2019-06-01T15:01:32.222Z,0.7
2019-06-01T15:02:24.074Z,1.4
2019-06-01T15:03:24.183Z,1.5
2019-06-01T15:04:54.362Z,0.8
2019-06-01T15:05:54.459Z,1.0
2019-06-01T15:06:54.404Z,1.1
2019-06-01T15:07:54.435Z,0.8
2019-06-01T15:09:10.340Z,1.1
2019-06-01T15:10:24.408Z,1.4
2019-06-01T15:12:14.438Z,0.9
2019-06-01T15:13:14.453Z,1.1
2019-06-01T15:14:44.562Z,0.8
2019-06-01T15:15:44.576Z,0.6
2019-06-01T15:16:24.585Z,1.1
2019-06-01T15:17:14.586Z,1.6
2019-06-01T15:18:14.612Z,0.8
2019-06-01T15:19:44.686Z,1.1
2019-06-01T15:20:44.719Z,0.4
2019-06-01T15:21:24.712Z,0.4
2019-06-01T15:22:24.771Z,0.8
2019-06-01T15:23:24.783Z,0.6
2019-06-01T15:24:54.809Z,0.8
2019-06-01T15:25:54.869Z,0.8
2019-06-01T15:26:54.908Z,1.0
2019-06-01T15:27:54.921Z,1.3
2019-06-01T15:28:55.007Z,1.0
2019-06-01T15:30:25.110Z,1.4
2019-06-01T15:36:15.304Z,0.8
2019-06-01T15:37:15.319Z,0.8
2019-06-01T15:38:15.436Z,1.0
2019-06-01T15:39:45.480Z,0.9
2019-06-01T15:40:45.499Z,1.2
2019-06-01T15:41:25.509Z,1.1
2019-06-01T15:42:25.520Z,1.0
2019-06-01T15:43:25.561Z,1.3
2019-06-01T15:44:55.605Z,1.1
2019-06-01T15:45:55.674Z,1.8
2019-06-01T15:46:55.844Z,0.9
2019-06-01T15:47:55.726Z,0.9
2019-06-01T15:48:56.132Z,1.1
2019-06-01T15:50:25.764Z,1.1
2019-06-01T15:56:15.857Z,0.6
2019-06-01T15:57:15.880Z,0.8
2019-06-01T15:58:15.890Z,0.9
2019-06-01T15:59:45.958Z,0.9
2019-06-01T16:00:45.996Z,0.8
2019-06-01T16:01:26.011Z,0.8
2019-06-01T16:02:26.011Z,0.9
2019-06-01T16:03:26.102Z,0.8
2019-06-01T16:04:57.005Z,0.8
2019-06-01T16:05:57.057Z,0.6
2019-06-01T16:06:57.108Z,0.8
2019-06-01T16:07:57.087Z,0.9
2019-06-01T16:09:41.490Z,0.9
2019-06-01T16:10:26.321Z,1.0
2019-06-01T16:16:16.465Z,0.8
2019-06-01T16:17:16.468Z,1.1
2019-06-01T16:18:16.531Z,1.3
2019-06-01T16:19:46.554Z,0.8
2019-06-01T16:20:46.585Z,0.8
2019-06-01T16:21:26.614Z,0.8
2019-06-01T16:22:26.586Z,1.0
2019-06-01T16:23:26.657Z,0.9
2019-06-01T16:24:56.706Z,0.8
2019-06-01T16:26:05.623Z,0.6
2019-06-01T16:26:56.811Z,0.2
2019-06-01T16:27:56.836Z,0.8
2019-06-01T16:29:26.851Z,0.6
2019-06-01T16:30:26.862Z,0.8
2019-06-01T16:31:16.863Z,1.0
2019-06-01T16:32:16.884Z,1.0
2019-06-01T16:33:26.923Z,0.8
2019-06-01T16:34:56.924Z,0.8
2019-06-01T16:35:56.978Z,0.8
2019-06-01T16:36:56.970Z,1.6
2019-06-01T16:37:56.985Z,0.8
2019-06-01T16:39:26.997Z,1.0
2019-06-01T16:41:17.030Z,1.2
2019-06-01T16:42:17.099Z,0.8
2019-06-01T16:43:17.108Z,0.9
2019-06-01T16:44:47.124Z,0.9
2019-06-01T16:45:47.178Z,1.3
2019-06-01T16:46:27.174Z,1.1
2019-06-01T16:47:27.205Z,1.0
2019-06-01T16:48:27.219Z,1.2
2019-06-01T16:49:57.634Z,0.7
2019-06-01T16:50:57.613Z,0.8
2019-06-01T16:51:58.687Z,0.8
2019-06-01T16:52:57.876Z,0.8
2019-06-01T16:54:17.334Z,0.8
2019-06-01T16:55:17.493Z,0.8
2019-06-01T16:55:57.858Z,0.8
2019-06-01T16:56:58.018Z,0.9
2019-06-01T16:57:57.552Z,0.9
2019-06-01T16:59:27.580Z,0.8
2019-06-01T17:01:17.580Z,0.8
2019-06-01T17:02:17.588Z,0.8
2019-06-01T17:03:17.660Z,0.4
2019-06-01T17:04:47.686Z,0.8
2019-06-01T17:05:47.746Z,0.0
2019-06-01T17:06:27.710Z,0.2
2019-06-01T17:07:27.783Z,0.8
2019-06-01T17:08:27.838Z,1.1
2019-06-01T17:09:58.683Z,0.8
2019-06-01T17:10:47.870Z,0.8
2019-06-01T17:11:27.897Z,0.6
2019-06-01T17:12:28.068Z,0.8
2019-06-01T17:13:27.962Z,0.8
2019-06-01T17:14:58.846Z,0.8
2019-06-01T17:15:58.900Z,1.2
2019-06-01T17:16:58.954Z,0.8
2019-06-01T17:18:01.635Z,0.0
2019-06-01T17:19:28.130Z,0.2
2019-06-01T17:20:18.260Z,0.2
2019-06-01T17:21:18.246Z,0.6
2019-06-01T17:22:18.280Z,0.6
2019-06-01T17:23:26.589Z,0.8
2019-06-01T17:24:48.313Z,0.8
2019-06-01T17:25:28.336Z,0.8
2019-06-01T17:26:28.420Z,0.2
2019-06-01T17:27:28.406Z,0.2
2019-06-01T17:28:28.412Z,0.2
2019-06-01T17:29:48.530Z,0.8
2019-06-01T17:30:18.528Z,0.8
2019-06-01T17:31:18.523Z,0.8
2019-06-01T17:32:23.760Z,0.0
2019-06-01T17:33:18.634Z,0.0
2019-06-01T17:34:43.364Z,0.0
2019-06-01T17:35:23.384Z,0.0
2019-06-01T17:36:23.463Z,0.6
2019-06-01T17:37:23.488Z,0.8
2019-06-01T17:38:23.487Z,0.2
2019-06-01T17:39:43.524Z,0.0
2019-06-01T17:44:53.728Z,0.0
2019-06-01T17:45:43.732Z,0.2
2019-06-01T17:46:23.749Z,0.0
2019-06-01T17:47:27.038Z,0.0
2019-06-01T17:48:26.703Z,0.6
2019-06-01T17:49:43.993Z,0.0
2019-06-01T17:54:54.140Z,0.6
2019-06-01T17:55:44.167Z,0.0
2019-06-01T17:56:24.155Z,0.6
2019-06-01T17:57:24.214Z,0.0
2019-06-01T17:58:24.273Z,0.0
2019-06-01T17:59:44.381Z,0.0
2019-06-01T18:04:54.714Z,0.8
2019-06-01T18:05:44.815Z,0.2
2019-06-01T18:06:24.909Z,0.0
2019-06-01T18:07:25.053Z,0.2
2019-06-01T18:08:24.990Z,0.0
2019-06-01T18:09:45.049Z,0.0
2019-06-01T18:14:55.198Z,0.0
2019-06-01T18:15:45.285Z,0.0
2019-06-01T18:16:25.329Z,0.0
2019-06-01T18:17:25.366Z,0.0
2019-06-01T18:18:25.462Z,0.0
2019-06-01T18:19:45.527Z,0.6
2019-06-01T18:24:55.823Z,0.0
2019-06-01T18:25:45.877Z,0.4
2019-06-01T18:26:25.841Z,1.0
2019-06-01T18:27:25.864Z,1.1
2019-06-01T18:28:25.924Z,0.8
2019-06-01T18:29:48.539Z,0.8
2019-06-01T18:32:25.954Z,0.5
2019-06-01T18:33:26.003Z,0.2
2019-06-01T18:34:45.979Z,0.8
2019-06-01T18:45:16.499Z,0.8
2019-06-01T18:46:16.450Z,0.8
2019-06-01T18:47:31.253Z,0.8
2019-06-01T18:48:16.529Z,0.8
2019-06-01T18:49:46.561Z,0.8
2019-06-01T18:50:26.614Z,0.6
2019-06-01T18:51:26.600Z,0.0
2019-06-01T18:52:26.751Z,0.8
2019-06-01T18:53:26.637Z,0.8
2019-06-01T18:54:56.695Z,0.8
2019-06-01T18:55:56.710Z,0.6
2019-06-01T18:57:09.324Z,0.0
2019-06-01T18:57:56.744Z,0.0
2019-06-01T18:59:26.973Z,0.0
2019-06-01T19:02:17.050Z,0.0
2019-06-01T19:07:17.227Z,0.0
2019-06-01T19:08:17.240Z,0.0
2019-06-01T19:09:17.331Z,0.0
2019-06-01T19:10:17.384Z,0.0
2019-06-01T19:11:47.401Z,0.0
2019-06-01T19:12:27.406Z,0.2
2019-06-01T19:13:27.482Z,0.8
2019-06-01T19:14:27.559Z,0.8
2019-06-01T19:15:57.644Z,0.8
2019-06-01T19:16:57.644Z,0.8
2019-06-01T19:17:47.654Z,0.8
2019-06-01T19:18:27.660Z,0.4
2019-06-01T19:19:27.664Z,0.0
2019-06-01T19:20:27.695Z,0.2
2019-06-01T19:21:47.883Z,0.8
2019-06-01T19:22:27.925Z,0.8
2019-06-01T19:23:28.041Z,0.8
2019-06-01T19:24:28.060Z,0.8
2019-06-01T19:25:28.065Z,0.8
2019-06-01T19:26:48.187Z,0.8
2019-06-01T19:27:28.242Z,0.8
2019-06-01T19:33:53.548Z,0.4
2019-06-01T19:34:33.051Z,0.6
2019-06-01T19:36:22.984Z,0.6
2019-06-01T19:37:23.014Z,0.8
2019-06-01T19:38:23.064Z,0.8
2019-06-01T19:39:23.143Z,0.8
2019-06-01T19:40:23.102Z,0.9
2019-06-01T19:41:45.027Z,0.8
2019-06-01T19:42:33.256Z,0.8
2019-06-01T19:43:33.213Z,0.4
2019-06-01T19:44:36.477Z,0.8
2019-06-01T19:45:33.442Z,0.6
2019-06-01T19:46:53.389Z,0.2
2019-06-01T19:47:43.443Z,0.0
2019-06-01T19:48:23.508Z,0.0
2019-06-01T19:49:23.527Z,0.6
2019-06-01T19:50:23.557Z,0.6
2019-06-01T19:51:43.622Z,0.8
2019-06-01T19:52:33.642Z,0.9
2019-06-01T19:53:33.648Z,0.8
2019-06-01T19:54:33.726Z,0.8